FAWC Weather

FACT METAR/TAF

[source: ADDS]
METAR
FACT 230000Z 23006KT CAVOK 14/13 Q1014 NOSIG =
TAF
TAF FACT 222200Z 2300/2406 21006KT 9999 SCT025 PROB30 TEMPO 2303/2307 BKN012 BECMG 2314/2316 BKN020 PROB40 TEMPO 2318/2406 6000 BKN010 TX21/2312Z TN12/2304Z =
SR / SS: 03:52 / 17:05 UTC (FAWC 2017-10-23)

Polls

Flying Interest Is?